Time;durP1;ratioP1;P1;durP2;ratioP2;P2;SDS_P1;SDS_P2;PMS_P1;PMS_P2;Temp;Humidity;BMP_temperature;BMP_pressure;BME280_temperature;BME280_humidity;BME280_pressure;Samples;Min_cycle;Max_cycle;Signal;HPM_P1;HPM_P2
2021/05/14 00:01:40;;;;;;;22.15;19.85;;;12.60;99.90;;;;;;4734053;30;20251;-76
2021/05/14 00:04:06;;;;;;;19.48;17.48;;;12.50;99.90;;;;;;4728464;30;20048;-76
2021/05/14 00:06:33;;;;;;;20.63;17.58;;;12.50;99.90;;;;;;4726794;30;20048;-76
2021/05/14 00:08:59;;;;;;;21.90;19.60;;;12.60;99.90;;;;;;4714426;30;20044;-76
2021/05/14 00:11:26;;;;;;;20.17;16.73;;;12.50;99.90;;;;;;4712431;30;20052;-76
2021/05/14 00:13:54;;;;;;;20.52;17.35;;;12.60;99.90;;;;;;4727059;30;20481;-76
2021/05/14 00:16:21;;;;;;;17.48;15.68;;;12.60;99.90;;;;;;4728480;30;20052;-76
2021/05/14 00:18:48;;;;;;;19.40;17.38;;;12.60;99.90;;;;;;4715037;30;20373;-76
2021/05/14 00:21:14;;;;;;;18.30;16.23;;;12.70;99.90;;;;;;4742599;30;20405;-76
2021/05/14 00:23:40;;;;;;;19.63;17.17;;;12.70;99.90;;;;;;4744557;30;20059;-75
2021/05/14 00:26:07;;;;;;;20.27;16.50;;;12.60;99.90;;;;;;4728616;30;20068;-76
2021/05/14 00:28:34;;;;;;;18.20;16.10;;;12.60;99.90;;;;;;4713815;30;20059;-76
2021/05/14 00:31:05;;;;;;;19.25;16.33;;;12.70;99.90;;;;;;4743019;30;20056;-76
2021/05/14 00:33:31;;;;;;;21.67;19.27;;;12.60;99.90;;;;;;4743109;30;20048;-75
2021/05/14 00:35:58;;;;;;;18.60;16.65;;;12.60;99.90;;;;;;4727944;30;20048;-76
2021/05/14 00:38:24;;;;;;;19.42;16.80;;;12.60;99.90;;;;;;4713407;30;20036;-76
2021/05/14 00:40:51;;;;;;;17.98;16.15;;;12.60;99.90;;;;;;4741515;30;20071;-76
2021/05/14 00:43:17;;;;;;;17.33;15.57;;;12.60;99.90;;;;;;4729542;30;20091;-76
2021/05/14 00:45:44;;;;;;;16.58;14.88;;;12.60;99.90;;;;;;4727673;30;20052;-76
2021/05/14 00:48:10;;;;;;;18.02;16.20;;;12.60;99.90;;;;;;4727761;30;20051;-76
2021/05/14 00:50:37;;;;;;;18.27;16.05;;;12.70;99.90;;;;;;4711144;30;20468;-76
2021/05/14 00:53:04;;;;;;;17.20;15.07;;;12.60;99.90;;;;;;4727727;30;20511;-76
2021/05/14 00:55:31;;;;;;;18.52;16.65;;;12.60;99.90;;;;;;4725518;30;20071;-76
2021/05/14 00:57:57;;;;;;;17.75;15.98;;;12.60;99.90;;;;;;4742535;30;20527;-76
2021/05/14 01:00:24;;;;;;;18.90;15.95;;;12.70;99.90;;;;;;4697787;30;20044;-76
2021/05/14 01:02:52;;;;;;;16.70;15.00;;;12.60;99.90;;;;;;4743978;30;20523;-76
2021/05/14 01:05:20;;;;;;;18.15;16.13;;;12.70;99.90;;;;;;4724718;30;20477;-76
2021/05/14 01:07:47;;;;;;;16.38;14.57;;;12.70;99.90;;;;;;4728526;30;20055;-76
2021/05/14 01:10:14;;;;;;;17.00;15.30;;;12.70;99.90;;;;;;4711060;30;20059;-76
2021/05/14 01:12:40;;;;;;;19.33;16.23;;;12.70;99.90;;;;;;4744690;30;20039;-77
2021/05/14 01:15:07;;;;;;;18.35;16.45;;;12.70;99.90;;;;;;4726529;30;20056;-77
2021/05/14 01:17:34;;;;;;;17.23;15.25;;;12.80;99.90;;;;;;4728641;30;20055;-76
2021/05/14 01:20:02;;;;;;;17.80;16.10;;;12.80;99.90;;;;;;4740217;30;20051;-75
2021/05/14 01:22:28;;;;;;;19.08;17.10;;;12.80;99.90;;;;;;4718177;30;20532;-75
2021/05/14 01:24:55;;;;;;;18.02;16.15;;;12.80;99.90;;;;;;4741441;30;20124;-76
2021/05/14 01:27:22;;;;;;;19.52;17.50;;;12.90;99.90;;;;;;4741987;30;20056;-75
2021/05/14 01:29:49;;;;;;;20.15;18.15;;;12.90;99.90;;;;;;4712369;30;20065;-76
2021/05/14 01:32:16;;;;;;;21.73;19.42;;;12.90;99.90;;;;;;4739527;30;20063;-75
2021/05/14 01:34:44;;;;;;;21.20;19.02;;;12.90;99.90;;;;;;4740503;30;20036;-75
2021/05/14 01:37:10;;;;;;;20.73;18.58;;;12.90;99.90;;;;;;4743616;30;20063;-75
2021/05/14 01:39:37;;;;;;;24.20;21.40;;;12.90;99.90;;;;;;4741715;30;20056;-75
2021/05/14 01:42:04;;;;;;;24.35;21.95;;;12.80;99.90;;;;;;4741655;30;20047;-75
2021/05/14 01:44:30;;;;;;;23.30;20.88;;;12.90;99.90;;;;;;4726365;30;20397;-75
2021/05/14 01:46:58;;;;;;;24.35;21.77;;;12.90;99.90;;;;;;4725732;30;20067;-75
2021/05/14 01:49:24;;;;;;;25.42;22.73;;;12.90;99.90;;;;;;4742610;30;20048;-75
2021/05/14 01:51:51;;;;;;;25.17;22.48;;;12.90;99.90;;;;;;4727309;30;20076;-75
2021/05/14 01:54:17;;;;;;;24.30;20.77;;;12.90;99.90;;;;;;4729628;30;20048;-75
2021/05/14 01:56:51;;;;;;;28.67;24.58;;;12.90;99.90;;;;;;4730562;30;20492;-75
2021/05/14 01:59:18;;;;;;;25.80;23.05;;;12.80;99.90;;;;;;4715717;30;20806;-75
2021/05/14 02:01:44;;;;;;;25.88;23.20;;;12.80;99.90;;;;;;4744712;30;20532;-75
2021/05/14 02:04:11;;;;;;;26.23;23.02;;;12.80;99.90;;;;;;4730880;30;20071;-75
2021/05/14 02:06:38;;;;;;;26.52;22.98;;;12.70;99.90;;;;;;4728378;30;20055;-75
2021/05/14 02:09:05;;;;;;;30.70;27.15;;;12.70;99.90;;;;;;4729972;30;20044;-75
2021/05/14 02:11:33;;;;;;;31.88;26.05;;;12.70;99.90;;;;;;4744755;30;20273;-75
2021/05/14 02:13:59;;;;;;;32.85;29.10;;;12.70;99.90;;;;;;4728975;30;20040;-75
2021/05/14 02:16:26;;;;;;;32.63;27.25;;;12.70;99.90;;;;;;4729569;30;20080;-75
2021/05/14 02:18:53;;;;;;;32.92;27.95;;;12.70;99.90;;;;;;4736145;30;20488;-75
2021/05/14 02:21:19;;;;;;;33.90;28.42;;;12.70;99.90;;;;;;4728656;30;20140;-75
2021/05/14 02:23:46;;;;;;;36.10;31.10;;;12.70;99.90;;;;;;4729811;30;20434;-75
2021/05/14 02:26:13;;;;;;;32.05;28.50;;;12.60;99.90;;;;;;4714324;30;20067;-75
2021/05/14 02:28:39;;;;;;;38.45;31.90;;;12.60;99.90;;;;;;4716140;30;20099;-75
2021/05/14 02:31:06;;;;;;;36.70;31.25;;;12.50;99.90;;;;;;4744021;30;20075;-75
2021/05/14 02:33:32;;;;;;;34.05;29.38;;;12.50;99.90;;;;;;4745453;30;20047;-75
2021/05/14 02:35:59;;;;;;;37.45;30.40;;;12.50;99.90;;;;;;4727893;30;20572;-75
2021/05/14 02:38:25;;;;;;;37.78;31.25;;;12.40;99.90;;;;;;4745230;30;20063;-75
2021/05/14 02:40:52;;;;;;;35.47;31.02;;;12.50;99.90;;;;;;4727990;30;20063;-75
2021/05/14 02:43:19;;;;;;;35.47;30.05;;;12.50;99.90;;;;;;4743680;30;20043;-75
2021/05/14 02:45:45;;;;;;;34.75;29.83;;;12.50;99.90;;;;;;4744251;30;20440;-75
2021/05/14 02:48:14;;;;;;;34.25;30.13;;;12.50;99.90;;;;;;4729955;30;20044;-74
2021/05/14 02:50:41;;;;;;;37.70;31.27;;;12.50;99.90;;;;;;4743958;30;20059;-75
2021/05/14 02:53:07;;;;;;;35.17;29.98;;;12.50;99.90;;;;;;4746496;30;20341;-75
2021/05/14 02:55:34;;;;;;;37.42;30.40;;;12.50;99.90;;;;;;4742982;30;20583;-75
2021/05/14 02:58:00;;;;;;;39.58;32.88;;;12.50;99.90;;;;;;4714954;30;20036;-75
2021/05/14 03:00:27;;;;;;;39.67;32.40;;;12.50;99.90;;;;;;4742185;30;20052;-75
2021/05/14 03:02:53;;;;;;;39.05;32.10;;;12.50;99.90;;;;;;4714360;30;20055;-75
2021/05/14 03:05:20;;;;;;;37.97;30.02;;;12.40;99.90;;;;;;4742637;30;20063;-75
2021/05/14 03:07:46;;;;;;;38.75;29.88;;;12.40;99.90;;;;;;4716804;30;20039;-75
2021/05/14 03:10:13;;;;;;;33.67;28.55;;;12.30;99.90;;;;;;4742330;30;20051;-75
2021/05/14 03:12:40;;;;;;;29.08;25.45;;;12.30;99.90;;;;;;4743744;30;20055;-75
2021/05/14 03:15:07;;;;;;;28.30;24.80;;;12.30;99.90;;;;;;4726003;30;20068;-76
2021/05/14 03:17:34;;;;;;;25.77;21.17;;;12.30;99.90;;;;;;4743006;30;20056;-75
2021/05/14 03:20:01;;;;;;;26.13;22.75;;;12.30;99.90;;;;;;4727559;30;20044;-75
2021/05/14 03:22:28;;;;;;;29.35;24.02;;;12.30;99.90;;;;;;4734195;30;20040;-75
2021/05/14 03:24:55;;;;;;;28.27;24.05;;;12.30;99.90;;;;;;4726391;30;20424;-75
2021/05/14 03:27:22;;;;;;;25.33;22.15;;;12.30;99.90;;;;;;4728957;30;20067;-75
2021/05/14 03:29:49;;;;;;;25.70;22.95;;;12.30;99.90;;;;;;4742722;30;20062;-75
2021/05/14 03:32:15;;;;;;;27.00;22.42;;;12.30;99.90;;;;;;4728257;30;20413;-75
2021/05/14 03:34:42;;;;;;;26.35;23.40;;;12.30;99.90;;;;;;4712922;30;20048;-76
2021/05/14 03:37:08;;;;;;;24.67;21.33;;;12.30;99.90;;;;;;4744879;30;20044;-75
2021/05/14 03:39:46;;;;;;;29.42;23.00;;;12.30;99.90;;;;;;4728401;30;20060;-75
2021/05/14 03:42:15;;;;;;;25.65;21.15;;;12.20;99.90;;;;;;4728514;30;20060;-75
2021/05/14 03:44:42;;;;;;;26.23;20.33;;;12.10;99.90;;;;;;4742010;30;20884;-75
2021/05/14 03:47:09;;;;;;;25.08;21.05;;;12.10;99.90;;;;;;4743567;30;20584;-75
2021/05/14 03:49:38;;;;;;;28.23;22.95;;;12.00;99.90;;;;;;4741946;30;20059;-75
2021/05/14 03:52:09;;;;;;;26.65;23.73;;;12.00;99.90;;;;;;4741836;30;20044;-74
2021/05/14 03:54:36;;;;;;;28.95;21.63;;;12.00;99.90;;;;;;4742481;30;20055;-75
2021/05/14 03:57:04;;;;;;;28.48;23.17;;;12.10;99.90;;;;;;4700098;30;20493;-75
2021/05/14 03:59:31;;;;;;;28.67;21.33;;;12.00;99.90;;;;;;4742344;30;20071;-75
2021/05/14 04:01:58;;;;;;;26.73;21.95;;;12.10;99.90;;;;;;4728414;30;20045;-75
2021/05/14 04:04:25;;;;;;;26.98;21.85;;;12.10;99.90;;;;;;4711971;30;20066;-76
2021/05/14 04:06:52;;;;;;;27.75;21.27;;;12.10;99.90;;;;;;4728245;30;20517;-76
2021/05/14 04:09:29;;;;;;;27.30;21.88;;;12.20;99.90;;;;;;4742637;30;20090;-75
2021/05/14 04:14:26;;;;;;;25.90;21.38;;;12.20;99.90;;;;;;4726401;30;20591;-75
2021/05/14 04:14:58;;;;;;;24.80;19.98;;;12.30;99.90;;;;;;4725152;30;20063;-75
2021/05/14 04:17:24;;;;;;;27.05;22.48;;;12.30;99.90;;;;;;4728158;30;20121;-75
2021/05/14 04:19:50;;;;;;;25.73;21.77;;;12.30;99.90;;;;;;4727677;30;20052;-75
2021/05/14 04:22:17;;;;;;;29.90;24.75;;;12.30;99.90;;;;;;4742547;30;20067;-75
2021/05/14 04:24:44;;;;;;;33.67;24.98;;;12.30;99.90;;;;;;4726664;30;20071;-74
2021/05/14 04:27:10;;;;;;;28.92;24.08;;;12.30;99.90;;;;;;4727999;30;20069;-75
2021/05/14 04:29:37;;;;;;;27.55;22.90;;;12.30;99.90;;;;;;4727248;30;20060;-75
2021/05/14 04:32:04;;;;;;;25.52;21.00;;;12.30;99.90;;;;;;4712677;30;20040;-75
2021/05/14 04:34:30;;;;;;;24.60;19.15;;;12.40;99.90;;;;;;4725812;30;20501;-75
2021/05/14 04:36:57;;;;;;;25.88;20.55;;;12.40;99.90;;;;;;4728272;30;20051;-76
2021/05/14 04:39:23;;;;;;;23.98;20.25;;;12.40;99.90;;;;;;4743541;30;20039;-76
2021/05/14 04:41:49;;;;;;;28.23;23.38;;;12.40;99.90;;;;;;4742448;30;20059;-75
2021/05/14 04:44:16;;;;;;;25.23;21.05;;;12.40;99.90;;;;;;4742463;30;20040;-76
2021/05/14 04:46:44;;;;;;;24.42;19.85;;;12.40;99.90;;;;;;4741260;30;21418;-76
2021/05/14 04:49:11;;;;;;;28.00;22.27;;;12.30;99.90;;;;;;4741835;30;20067;-75
2021/05/14 04:51:37;;;;;;;28.13;23.20;;;12.30;99.90;;;;;;4742468;30;20044;-75
2021/05/14 04:54:04;;;;;;;31.48;24.75;;;12.30;99.90;;;;;;4727343;30;20047;-75
2021/05/14 04:56:31;;;;;;;27.60;22.63;;;12.30;99.90;;;;;;4726681;30;20036;-75
2021/05/14 04:58:57;;;;;;;27.27;22.45;;;12.30;99.90;;;;;;4742141;30;20547;-75
2021/05/14 05:01:24;;;;;;;25.88;20.92;;;12.40;99.90;;;;;;4726274;30;20059;-75
2021/05/14 05:03:55;;;;;;;25.73;20.40;;;12.40;99.90;;;;;;4726064;30;20071;-75
2021/05/14 05:06:22;;;;;;;26.40;20.95;;;12.50;99.90;;;;;;4742745;30;20056;-76
2021/05/14 05:08:49;;;;;;;24.75;20.15;;;12.50;99.90;;;;;;4742753;30;20055;-75
2021/05/14 05:11:15;;;;;;;26.70;22.00;;;12.60;99.90;;;;;;4726114;30;20065;-75
2021/05/14 05:13:42;;;;;;;25.42;21.17;;;12.70;99.90;;;;;;4741673;30;20048;-75
2021/05/14 05:16:09;;;;;;;27.50;19.63;;;12.70;99.90;;;;;;4741280;30;20560;-75
2021/05/14 05:18:35;;;;;;;22.63;20.23;;;12.70;99.90;;;;;;4741480;30;20060;-75
2021/05/14 05:21:02;;;;;;;22.00;18.73;;;12.70;99.90;;;;;;4726184;30;20040;-75
2021/05/14 05:23:29;;;;;;;21.67;18.65;;;12.70;99.90;;;;;;4713293;30;20063;-75
2021/05/14 05:25:55;;;;;;;21.58;18.48;;;12.70;99.90;;;;;;4744539;30;20063;-75
2021/05/14 05:28:26;;;;;;;22.42;19.00;;;12.60;99.90;;;;;;4729058;30;20047;-75
2021/05/14 05:30:53;;;;;;;24.25;21.42;;;12.60;99.90;;;;;;4729062;30;20507;-76
2021/05/14 05:33:19;;;;;;;22.70;20.05;;;12.60;99.90;;;;;;4745010;30;20040;-75
2021/05/14 05:35:46;;;;;;;23.95;19.23;;;12.60;99.90;;;;;;4716115;30;20055;-75
2021/05/14 05:38:20;;;;;;;23.25;19.85;;;12.50;99.90;;;;;;4745101;30;20051;-75
2021/05/14 05:40:49;;;;;;;24.08;19.33;;;12.50;99.90;;;;;;4729067;30;20051;-75
2021/05/14 05:43:18;;;;;;;21.88;18.55;;;12.40;99.90;;;;;;4745701;30;20044;-75
2021/05/14 05:45:46;;;;;;;21.55;19.17;;;12.40;99.90;;;;;;4700744;30;20048;-75
2021/05/14 05:48:12;;;;;;;24.25;19.83;;;12.40;99.90;;;;;;4745422;30;20051;-75
2021/05/14 05:50:40;;;;;;;24.30;20.13;;;12.40;99.90;;;;;;4745613;30;20060;-79
2021/05/14 05:53:11;;;;;;;22.83;19.20;;;12.40;99.90;;;;;;4732193;30;20036;-79
2021/05/14 05:55:37;;;;;;;31.63;27.20;;;12.50;99.90;;;;;;4746439;30;20070;-79
2021/05/14 05:58:15;;;;;;;29.20;24.02;;;12.50;99.90;;;;;;4747544;30;20067;-79
2021/05/14 06:00:42;;;;;;;30.35;23.48;;;12.50;99.90;;;;;;4739815;30;20063;-79
2021/05/14 06:03:10;;;;;;;29.45;23.15;;;12.50;99.90;;;;;;4748466;30;20040;-79
2021/05/14 06:05:38;;;;;;;25.80;20.85;;;12.50;99.90;;;;;;4725577;30;20508;-79
2021/05/14 06:08:05;;;;;;;25.40;21.70;;;12.50;99.90;;;;;;4746936;30;20044;-79
2021/05/14 06:10:32;;;;;;;25.17;21.08;;;12.50;99.90;;;;;;4747272;30;20062;-79
2021/05/14 06:12:58;;;;;;;24.98;18.77;;;12.50;99.90;;;;;;4732831;30;20048;-79
2021/05/14 06:15:25;;;;;;;26.63;20.52;;;12.60;99.90;;;;;;4748397;30;20044;-79
2021/05/14 06:17:51;;;;;;;27.92;19.70;;;12.60;99.90;;;;;;4718600;30;20044;-79
2021/05/14 06:20:21;;;;;;;22.77;19.33;;;12.70;99.90;;;;;;4747780;30;20056;-79
2021/05/14 06:22:47;;;;;;;26.65;19.55;;;12.80;99.90;;;;;;4747385;30;20416;-79
2021/05/14 06:25:14;;;;;;;28.75;21.60;;;12.80;99.90;;;;;;4747401;30;20052;-79
2021/05/14 06:27:41;;;;;;;23.27;18.30;;;12.90;99.90;;;;;;4731545;30;20071;-80
2021/05/14 06:30:08;;;;;;;29.63;21.42;;;12.90;99.90;;;;;;4746407;30;20922;-80
2021/05/14 06:32:35;;;;;;;22.65;18.80;;;13.00;99.90;;;;;;4733566;30;20063;-79
2021/05/14 06:35:02;;;;;;;25.25;21.45;;;13.00;99.90;;;;;;4732087;30;20040;-79
2021/05/14 06:37:30;;;;;;;29.70;23.17;;;13.00;99.90;;;;;;4746899;30;20056;-79
2021/05/14 06:39:57;;;;;;;26.33;21.35;;;13.10;99.90;;;;;;4736738;30;20496;-80
2021/05/14 06:42:24;;;;;;;24.25;21.55;;;13.00;99.90;;;;;;4749098;30;20040;-79
2021/05/14 06:44:53;;;;;;;25.17;19.80;;;13.00;99.90;;;;;;4749334;30;20060;-79
2021/05/14 06:47:19;;;;;;;25.65;20.45;;;13.00;99.90;;;;;;4746343;30;20060;-79
2021/05/14 06:49:46;;;;;;;23.50;17.95;;;13.00;99.90;;;;;;4733077;30;20060;-79
2021/05/14 06:52:13;;;;;;;25.92;20.52;;;13.00;99.90;;;;;;4746385;30;20047;-79
2021/05/14 06:54:39;;;;;;;26.10;19.70;;;13.00;99.90;;;;;;4748348;30;21363;-79
2021/05/14 06:57:06;;;;;;;26.25;21.38;;;13.10;99.90;;;;;;4746671;30;20044;-79
2021/05/14 06:59:33;;;;;;;21.35;16.40;;;13.10;99.90;;;;;;4732182;30;20044;-79
2021/05/14 07:02:01;;;;;;;24.75;18.92;;;13.20;99.90;;;;;;4746425;30;20048;-80
2021/05/14 07:04:28;;;;;;;23.88;18.65;;;13.30;99.90;;;;;;4738861;30;20044;-79
2021/05/14 07:06:54;;;;;;;20.83;18.10;;;13.30;99.90;;;;;;4730977;30;20052;-80
2021/05/14 07:09:21;;;;;;;20.23;17.73;;;13.40;99.90;;;;;;4729807;30;20906;-79
2021/05/14 07:11:47;;;;;;;20.15;17.80;;;13.50;99.90;;;;;;4729591;30;20078;-79
2021/05/14 07:14:14;;;;;;;19.48;15.63;;;13.60;99.90;;;;;;4747865;30;20055;-79
2021/05/14 07:16:42;;;;;;;21.40;18.10;;;13.60;99.90;;;;;;4746372;30;20055;-81
2021/05/14 07:19:11;;;;;;;23.42;19.25;;;13.70;99.90;;;;;;4748789;30;20044;-82
2021/05/14 07:21:38;;;;;;;20.52;18.33;;;13.70;99.90;;;;;;4731286;30;20461;-82
2021/05/14 07:24:05;;;;;;;21.92;18.52;;;13.70;99.90;;;;;;4747208;30;20064;-83
2021/05/14 07:26:32;;;;;;;20.38;17.85;;;13.80;99.90;;;;;;4743945;30;20516;-80
2021/05/14 07:28:59;;;;;;;21.40;17.85;;;13.90;99.90;;;;;;4729642;30;20060;-82
2021/05/14 07:31:26;;;;;;;19.83;17.27;;;14.00;99.90;;;;;;4716226;30;20036;-83
2021/05/14 07:33:53;;;;;;;21.98;18.52;;;14.10;99.90;;;;;;4745789;30;20097;-76
2021/05/14 07:36:19;;;;;;;20.35;18.25;;;14.20;99.90;;;;;;4714826;30;20040;-76
2021/05/14 07:38:46;;;;;;;19.38;17.30;;;14.20;99.90;;;;;;4730002;30;20048;-76
2021/05/14 07:41:12;;;;;;;20.60;18.50;;;14.20;99.90;;;;;;4737796;30;20051;-80
2021/05/14 07:43:39;;;;;;;24.88;22.35;;;14.30;99.90;;;;;;4732393;30;20044;-78
2021/05/14 07:46:05;;;;;;;22.52;20.15;;;14.40;99.90;;;;;;4730683;30;20056;-82
2021/05/14 07:48:32;;;;;;;23.45;20.73;;;14.40;99.90;;;;;;4745845;30;20048;-79
2021/05/14 07:50:58;;;;;;;25.48;22.60;;;14.50;99.90;;;;;;4743188;30;20416;-79
2021/05/14 07:53:25;;;;;;;25.48;20.42;;;14.50;99.80;;;;;;4721685;30;20036;-79
2021/05/14 07:55:51;;;;;;;21.55;19.20;;;14.50;99.50;;;;;;4746090;30;20438;-81
2021/05/14 07:58:20;;;;;;;21.42;19.23;;;14.50;99.40;;;;;;4745487;30;20063;-78
2021/05/14 08:00:49;;;;;;;19.55;17.52;;;14.40;99.20;;;;;;4746025;30;20051;-78
2021/05/14 08:03:16;;;;;;;20.27;17.83;;;14.30;99.00;;;;;;4746384;30;20118;-78
2021/05/14 08:05:46;;;;;;;18.35;16.20;;;14.30;99.00;;;;;;4744269;30;20044;-78
2021/05/14 08:08:15;;;;;;;16.92;15.23;;;14.20;99.20;;;;;;4747145;30;20047;-78
2021/05/14 08:10:42;;;;;;;14.40;12.82;;;14.30;99.30;;;;;;4745368;30;20048;-78
2021/05/14 08:13:08;;;;;;;17.35;15.55;;;14.40;99.20;;;;;;4748726;30;20531;-82
2021/05/14 08:15:35;;;;;;;18.10;15.98;;;14.40;99.00;;;;;;4757039;30;20052;-82
2021/05/14 08:18:02;;;;;;;15.98;14.07;;;14.50;98.80;;;;;;4736662;30;20047;-82
2021/05/14 08:20:28;;;;;;;20.98;17.67;;;14.50;98.80;;;;;;4744883;30;20051;-82
2021/05/14 08:22:55;;;;;;;20.83;17.60;;;14.50;98.40;;;;;;4748907;30;20465;-81
2021/05/14 08:25:21;;;;;;;20.58;17.88;;;14.50;98.20;;;;;;4746031;30;20056;-83
2021/05/14 08:27:48;;;;;;;18.67;15.63;;;14.50;98.30;;;;;;4747390;30;20072;-82
2021/05/14 08:30:15;;;;;;;19.30;16.98;;;14.50;98.30;;;;;;4746193;30;20085;-82
2021/05/14 08:32:43;;;;;;;18.40;16.00;;;14.60;98.10;;;;;;4746288;30;20059;-82
2021/05/14 08:35:10;;;;;;;19.73;16.30;;;14.60;97.90;;;;;;4744527;30;20063;-82
2021/05/14 08:37:38;;;;;;;21.35;16.23;;;14.60;97.60;;;;;;4736446;30;20063;-82
2021/05/14 08:40:07;;;;;;;16.60;14.73;;;14.60;97.50;;;;;;4746253;30;20040;-82
2021/05/14 08:42:42;;;;;;;14.93;12.95;;;14.60;97.40;;;;;;4730922;30;20056;-80
2021/05/14 08:45:12;;;;;;;17.58;15.60;;;14.70;97.60;;;;;;4730014;30;20930;-80
2021/05/14 08:47:40;;;;;;;19.75;16.75;;;14.70;97.60;;;;;;4745130;30;20055;-80
2021/05/14 08:50:10;;;;;;;18.10;16.17;;;14.80;97.30;;;;;;4718821;30;20055;-80
2021/05/14 08:52:40;;;;;;;15.77;13.80;;;14.80;97.40;;;;;;4741488;30;20787;-80
2021/05/14 08:55:08;;;;;;;19.08;17.08;;;14.80;97.20;;;;;;4726201;30;20048;-80
2021/05/14 08:57:35;;;;;;;19.42;16.80;;;14.70;97.10;;;;;;4730246;30;20048;-80
2021/05/14 09:00:03;;;;;;;22.58;18.30;;;14.70;97.20;;;;;;4728402;30;20044;-80
2021/05/14 09:02:32;;;;;;;19.17;15.85;;;14.60;97.00;;;;;;4731496;30;20048;-80
2021/05/14 09:05:20;;;;;;;19.73;16.42;;;14.70;97.30;;;;;;4718772;30;20067;-80
2021/05/14 09:07:46;;;;;;;20.40;18.20;;;14.70;97.00;;;;;;4727760;30;20056;-80
2021/05/14 09:10:14;;;;;;;20.77;16.02;;;14.80;97.00;;;;;;4726681;30;20413;-81
2021/05/14 09:12:42;;;;;;;21.63;16.38;;;14.90;97.00;;;;;;4725949;30;20044;-79
2021/05/14 09:15:34;;;;;;;19.65;16.15;;;15.00;97.10;;;;;;4741495;30;20063;-79
2021/05/14 09:18:15;;;;;;;17.65;14.98;;;15.30;96.70;;;;;;4720584;30;20424;-79
2021/05/14 09:20:53;;;;;;;15.38;13.55;;;15.40;96.40;;;;;;4741499;30;20055;-79
2021/05/14 09:23:20;;;;;;;17.00;13.90;;;15.60;96.40;;;;;;4730071;30;20104;-79
2021/05/14 09:26:01;;;;;;;14.65;13.13;;;15.70;96.10;;;;;;4742542;30;20055;-79
2021/05/14 09:28:29;;;;;;;16.75;14.30;;;15.80;95.70;;;;;;4743716;30;20051;-79
2021/05/14 09:31:05;;;;;;;17.42;14.68;;;15.90;95.50;;;;;;4742225;30;20063;-79
2021/05/14 09:33:33;;;;;;;18.52;15.52;;;16.00;95.30;;;;;;4742650;30;20048;-79
2021/05/14 09:36:00;;;;;;;21.95;18.63;;;16.10;95.20;;;;;;4743263;30;20059;-80
2021/05/14 09:38:37;;;;;;;19.02;15.82;;;16.10;94.80;;;;;;4744198;30;20044;-79
2021/05/14 09:41:04;;;;;;;21.83;16.77;;;16.10;94.40;;;;;;4743464;30;20048;-79
2021/05/14 09:43:51;;;;;;;15.30;13.43;;;16.10;93.90;;;;;;4743825;30;20504;-79
2021/05/14 09:46:45;;;;;;;15.88;14.15;;;16.20;93.90;;;;;;4742430;30;20532;-79
2021/05/14 09:49:13;;;;;;;18.15;14.93;;;16.40;93.60;;;;;;4726074;30;20068;-79
2021/05/14 09:51:54;;;;;;;16.60;14.63;;;16.50;93.20;;;;;;4741834;30;20048;-79
2021/05/14 09:54:24;;;;;;;14.38;12.85;;;16.70;93.10;;;;;;4730683;30;20390;-79
2021/05/14 09:57:30;;;;;;;15.35;13.75;;;16.80;93.00;;;;;;4727669;30;20044;-79
2021/05/14 10:00:05;;;;;;;15.63;12.10;;;16.90;92.60;;;;;;4740316;30;20056;-78
2021/05/14 10:02:34;;;;;;;13.50;11.40;;;17.00;92.60;;;;;;4742817;30;20052;-79
2021/05/14 10:05:11;;;;;;;17.45;13.32;;;16.90;92.20;;;;;;4725768;30;20869;-79
2021/05/14 10:07:39;;;;;;;14.05;12.05;;;16.90;92.30;;;;;;4743586;30;20850;-79
2021/05/14 10:10:08;;;;;;;14.68;12.80;;;17.00;92.20;;;;;;4743232;30;20051;-79
2021/05/14 10:12:36;;;;;;;15.02;12.68;;;17.20;92.10;;;;;;4745279;30;20056;-79
2021/05/14 10:15:07;;;;;;;13.32;11.93;;;17.30;91.50;;;;;;4745189;30;20055;-79
2021/05/14 10:17:39;;;;;;;16.00;14.30;;;17.50;91.20;;;;;;4745489;30;20066;-80
2021/05/14 10:20:12;;;;;;;13.20;11.65;;;17.60;90.30;;;;;;4746122;30;20036;-79
2021/05/14 10:22:39;;;;;;;14.68;13.18;;;17.70;90.40;;;;;;4746742;30;20473;-78
2021/05/14 10:25:07;;;;;;;12.70;11.35;;;17.80;89.90;;;;;;4733065;30;20052;-79
2021/05/14 10:27:46;;;;;;;13.10;11.57;;;17.70;90.20;;;;;;4746643;30;20067;-79
2021/05/14 10:30:14;;;;;;;12.40;11.10;;;17.80;90.10;;;;;;4732911;30;20071;-79
2021/05/14 10:32:43;;;;;;;11.93;10.82;;;18.00;90.30;;;;;;4730023;30;20051;-79
2021/05/14 10:35:13;;;;;;;13.38;11.68;;;18.20;89.00;;;;;;4745380;30;20412;-79
2021/05/14 10:38:02;;;;;;;12.43;11.13;;;18.30;87.70;;;;;;4731186;30;20492;-79
2021/05/14 10:40:28;;;;;;;16.67;12.30;;;18.30;87.30;;;;;;4745869;30;20362;-79
2021/05/14 10:42:56;;;;;;;14.20;10.50;;;18.40;87.40;;;;;;4731054;30;20047;-79
2021/05/14 10:45:36;;;;;;;11.90;10.70;;;18.60;87.20;;;;;;4744285;30;20059;-79
2021/05/14 10:48:16;;;;;;;12.68;9.85;;;18.70;86.20;;;;;;4735716;30;20429;-79
2021/05/14 10:50:51;;;;;;;10.40;9.25;;;18.70;85.30;;;;;;4744318;30;20492;-79
2021/05/14 10:53:18;;;;;;;9.30;8.40;;;18.60;85.60;;;;;;4746265;30;20047;-79
2021/05/14 10:55:47;;;;;;;9.07;7.10;;;18.60;83.50;;;;;;4745446;30;20056;-79
2021/05/14 10:58:43;;;;;;;8.68;7.88;;;18.80;83.20;;;;;;4718030;30;20055;-79
2021/05/14 11:01:34;;;;;;;9.15;8.05;;;19.20;82.50;;;;;;4730034;30;20423;-79
2021/05/14 11:04:11;;;;;;;9.82;8.38;;;19.50;82.10;;;;;;4739756;30;20048;-79
2021/05/14 11:06:45;;;;;;;8.60;7.18;;;19.60;80.30;;;;;;4745243;30;20055;-79
2021/05/14 11:09:13;;;;;;;9.77;8.88;;;19.50;80.30;;;;;;4746048;30;20055;-78
2021/05/14 11:11:57;;;;;;;9.20;8.20;;;19.50;79.50;;;;;;4733527;30;20043;-77
2021/05/14 11:14:24;;;;;;;7.82;7.03;;;19.30;79.70;;;;;;4744539;30;20059;-77
2021/05/14 11:16:52;;;;;;;7.50;6.50;;;19.00;79.50;;;;;;4743777;30;20043;-77
2021/05/14 11:19:21;;;;;;;9.10;7.13;;;18.90;80.50;;;;;;4742423;30;20039;-77
2021/05/14 11:21:58;;;;;;;7.90;7.10;;;19.20;81.50;;;;;;4743902;30;20040;-77
2021/05/14 11:24:29;;;;;;;7.57;6.82;;;19.80;81.60;;;;;;4744223;30;20417;-80
2021/05/14 11:27:22;;;;;;;7.72;6.93;;;20.20;79.40;;;;;;4729067;30;20633;-78
2021/05/14 11:29:48;;;;;;;9.20;7.80;;;20.50;77.90;;;;;;4730160;30;20080;-78
2021/05/14 11:32:31;;;;;;;7.00;6.28;;;20.40;76.30;;;;;;4744684;30;20052;-79
2021/05/14 11:35:11;;;;;;;8.32;6.90;;;20.60;77.10;;;;;;4743825;30;20055;-81
2021/05/14 11:37:54;;;;;;;6.88;6.28;;;20.90;74.70;;;;;;4731568;30;20051;-80
2021/05/14 11:40:34;;;;;;;7.95;7.15;;;21.10;74.50;;;;;;4745719;30;20500;-80
2021/05/14 11:43:05;;;;;;;7.88;7.13;;;21.40;72.90;;;;;;4729058;30;20040;-79
2021/05/14 11:45:37;;;;;;;10.25;8.88;;;21.70;73.20;;;;;;4745276;30;20044;-80
2021/05/14 11:48:18;;;;;;;8.85;7.95;;;21.70;71.30;;;;;;4729906;30;20044;-81
2021/05/14 11:50:53;;;;;;;9.63;8.52;;;21.70;71.50;;;;;;4746552;30;20052;-81
2021/05/14 11:53:21;;;;;;;5.07;4.57;;;22.00;71.80;;;;;;4745351;30;20527;-77
2021/05/14 11:55:49;;;;;;;5.82;4.70;;;22.40;69.70;;;;;;4742608;30;20047;-77
2021/05/14 11:58:15;;;;;;;5.63;5.05;;;22.80;68.50;;;;;;4744064;30;20048;-77
2021/05/14 12:00:47;;;;;;;6.15;5.55;;;23.30;67.30;;;;;;4727830;30;20059;-77
2021/05/14 12:03:18;;;;;;;7.25;6.63;;;23.90;65.50;;;;;;4715433;30;20549;-78
2021/05/14 12:05:47;;;;;;;6.45;5.85;;;24.30;61.50;;;;;;4717580;30;20055;-78
2021/05/14 12:08:19;;;;;;;5.82;4.90;;;24.10;60.20;;;;;;4713800;30;20040;-78
2021/05/14 12:11:03;;;;;;;5.80;5.20;;;23.90;61.10;;;;;;4743308;30;20063;-78
2021/05/14 12:13:48;;;;;;;7.20;4.75;;;24.10;60.20;;;;;;4745686;30;20055;-78
2021/05/14 12:16:17;;;;;;;4.85;4.45;;;23.90;59.30;;;;;;4728069;30;20044;-77
2021/05/14 12:18:46;;;;;;;4.00;3.60;;;23.50;59.70;;;;;;4741885;30;20052;-77
2021/05/14 12:21:23;;;;;;;4.70;4.30;;;23.10;61.30;;;;;;4741104;30;20040;-76
2021/05/14 12:23:55;;;;;;;4.10;3.78;;;22.80;62.20;;;;;;4744208;30;20040;-76
2021/05/14 12:26:21;;;;;;;4.03;3.63;;;23.10;61.40;;;;;;4741662;30;20048;-76
2021/05/14 12:28:52;;;;;;;5.07;4.57;;;23.60;62.70;;;;;;4714151;30;20051;-76
2021/05/14 12:31:27;;;;;;;4.20;3.60;;;24.50;59.60;;;;;;4740233;30;20081;-78
2021/05/14 12:34:08;;;;;;;4.75;4.30;;;25.10;57.90;;;;;;4726879;30;20047;-77
2021/05/14 12:36:36;;;;;;;5.05;4.10;;;25.60;56.00;;;;;;4741560;30;20043;-78
2021/05/14 12:39:09;;;;;;;5.00;3.55;;;25.40;54.90;;;;;;4741435;30;20060;-77
2021/05/14 12:41:39;;;;;;;5.80;3.88;;;24.80;56.20;;;;;;4726576;30;20048;-76